Time;durP1;ratioP1;P1;durP2;ratioP2;P2;SDS_P1;SDS_P2;PMS_P1;PMS_P2;Temp;Humidity;BMP_temperature;BMP_pressure;BME280_temperature;BME280_humidity;BME280_pressure;Samples;Min_cycle;Max_cycle;Signal;HPM_P1;HPM_P2
2021/07/06 00:02:22;;;;;;;17.60;11.13;;;;;;;14.69;93.57;100600.94;4989788;28;20037;-75
2021/07/06 00:04:50;;;;;;;;;;;;;;;14.70;93.15;100602.63;4989108;28;20031;-74
2021/07/06 00:07:17;;;;;;;13.68;10.18;;;;;;;14.69;93.57;100603.63;4988384;28;19918;-75
2021/07/06 00:09:43;;;;;;;15.52;10.57;;;;;;;14.74;93.74;100605.72;4988444;28;20122;-74
2021/07/06 00:12:09;;;;;;;18.00;11.43;;;;;;;14.71;93.58;100604.25;4989605;28;20034;-71
2021/07/06 00:14:34;;;;;;;17.50;11.57;;;;;;;14.72;94.21;100608.59;4989486;28;20034;-71
2021/07/06 00:17:00;;;;;;;15.80;11.10;;;;;;;14.75;94.34;100607.41;4989111;28;20038;-71
2021/07/06 00:19:25;;;;;;;18.30;12.20;;;;;;;14.76;94.21;100607.19;4988528;28;20039;-71
2021/07/06 00:21:50;;;;;;;22.50;12.30;;;;;;;14.77;93.91;100613.41;4989292;28;20038;-71
2021/07/06 00:24:16;;;;;;;21.30;12.83;;;;;;;14.74;94.53;100611.09;4989063;28;20045;-71
2021/07/06 00:26:41;;;;;;;18.70;11.40;;;;;;;14.73;94.31;100598.72;4988886;28;20037;-71
2021/07/06 00:29:06;;;;;;;21.03;13.10;;;;;;;14.75;94.47;100592.13;4989181;28;20082;-71
2021/07/06 00:31:32;;;;;;;19.00;11.53;;;;;;;14.73;94.60;100599.53;4989116;28;20041;-71
2021/07/06 00:33:57;;;;;;;19.47;12.00;;;;;;;14.71;94.34;100592.69;4989146;28;20066;-71
2021/07/06 00:36:22;;;;;;;20.20;12.23;;;;;;;14.77;94.45;100597.28;4987888;28;20068;-71
2021/07/06 00:38:48;;;;;;;17.10;11.43;;;;;;;14.71;94.48;100601.56;4988092;28;20107;-71
2021/07/06 00:41:14;;;;;;;22.58;12.52;;;;;;;14.74;94.66;100600.34;4971869;28;20713;-71
2021/07/06 00:43:39;;;;;;;21.23;11.53;;;;;;;14.76;94.51;100601.81;4971841;28;20046;-71
2021/07/06 00:46:05;;;;;;;15.17;10.37;;;;;;;14.80;93.91;100606.81;4988740;28;20277;-71
2021/07/06 00:48:32;;;;;;;19.70;11.73;;;;;;;14.81;93.71;100603.94;4990545;28;20034;-71
2021/07/06 00:50:58;;;;;;;20.33;11.55;;;;;;;14.77;93.80;100591.91;4991489;28;20038;-71
2021/07/06 00:53:23;;;;;;;23.33;11.95;;;;;;;14.77;94.17;100590.06;4991477;28;20043;-71
2021/07/06 00:55:54;;;;;;;23.93;12.13;;;;;;;14.80;94.36;100588.84;4991310;28;20088;-71
2021/07/06 00:58:21;;;;;;;20.02;13.40;;;;;;;14.86;94.43;100584.53;4991473;28;20053;-71
2021/07/06 01:00:47;;;;;;;16.80;12.48;;;;;;;14.85;94.74;100580.19;4992310;28;20045;-71
2021/07/06 01:03:13;;;;;;;17.92;13.57;;;;;;;14.87;95.14;100576.28;4992230;28;20034;-71
2021/07/06 01:05:39;;;;;;;18.07;11.93;;;;;;;14.91;95.21;100587.47;4992318;28;20372;-71
2021/07/06 01:08:06;;;;;;;20.50;13.45;;;;;;;14.95;95.00;100586.06;4991760;28;20038;-71
2021/07/06 01:10:31;;;;;;;22.63;14.73;;;;;;;14.97;95.13;100578.63;4992176;28;20080;-71
2021/07/06 01:12:58;;;;;;;26.37;13.77;;;;;;;14.95;95.42;100569.94;4992128;28;20038;-71
2021/07/06 01:15:25;;;;;;;20.67;12.15;;;;;;;15.00;95.51;100575.53;4991208;28;20301;-71
2021/07/06 01:18:01;;;;;;;17.98;12.15;;;;;;;15.04;95.39;100571.44;4990950;28;20045;-71
2021/07/06 01:20:28;;;;;;;20.98;12.57;;;;;;;15.02;95.46;100572.69;4992021;28;20048;-71
2021/07/06 01:22:53;;;;;;;19.40;13.10;;;;;;;15.00;95.65;100570.16;4990948;28;20042;-71
2021/07/06 01:25:19;;;;;;;21.37;12.87;;;;;;;15.01;95.94;100566.47;4992064;28;20030;-71
2021/07/06 01:27:44;;;;;;;20.42;12.57;;;;;;;15.01;95.94;100558.41;4991625;28;20031;-71
2021/07/06 01:30:13;;;;;;;17.60;11.40;;;;;;;15.04;96.03;100560.69;4991075;28;20562;-71
2021/07/06 01:32:44;;;;;;;22.23;11.80;;;;;;;15.06;95.60;100564.03;4991867;28;20042;-71
2021/07/06 01:35:12;;;;;;;15.25;11.02;;;;;;;15.07;95.69;100560.28;4974511;28;20060;-71
2021/07/06 01:37:46;;;;;;;20.55;11.18;;;;;;;15.08;95.62;100545.00;4990478;28;20042;-71
2021/07/06 01:40:13;;;;;;;21.08;11.20;;;;;;;15.06;95.31;100537.13;4990924;28;20038;-71
2021/07/06 01:42:39;;;;;;;14.27;9.50;;;;;;;15.16;95.53;100542.97;4991459;28;20091;-71
2021/07/06 01:45:09;;;;;;;;;;;;;;;15.18;95.32;100543.63;4991182;28;20046;-71
2021/07/06 01:47:36;;;;;;;28.63;9.52;;;;;;;15.16;94.81;100548.34;4974040;28;20364;-71
2021/07/06 01:50:02;;;;;;;16.52;8.98;;;;;;;15.17;95.15;100549.19;4991605;28;20045;-71
2021/07/06 01:52:28;;;;;;;18.80;10.27;;;;;;;15.19;94.86;100542.59;4990566;28;20038;-71
2021/07/06 01:54:53;;;;;;;16.73;10.87;;;;;;;15.22;95.10;100538.69;4990636;28;20099;-71
2021/07/06 01:57:18;;;;;;;16.77;10.73;;;;;;;15.26;94.97;100528.34;4990297;28;20034;-71
2021/07/06 01:59:45;;;;;;;12.50;9.83;;;;;;;15.30;94.96;100538.50;4989984;28;20084;-71
2021/07/06 02:02:11;;;;;;;14.32;10.07;;;;;;;15.35;95.08;100529.84;4991325;28;20053;-71
2021/07/06 02:04:36;;;;;;;14.73;9.73;;;;;;;15.34;94.78;100514.75;4974213;28;20034;-71
2021/07/06 02:07:01;;;;;;;14.70;9.67;;;;;;;15.27;94.54;100516.59;4991159;28;20160;-71
2021/07/06 02:09:27;;;;;;;12.47;8.83;;;;;;;15.29;94.44;100514.50;4991383;28;20034;-71
2021/07/06 02:11:52;;;;;;;12.83;9.13;;;;;;;15.35;94.13;100513.72;4991341;28;20080;-71
2021/07/06 02:14:18;;;;;;;13.10;8.47;;;;;;;15.39;93.89;100509.59;4990320;28;20072;-71
2021/07/06 02:16:43;;;;;;;12.97;8.23;;;;;;;15.31;93.98;100513.28;4990654;28;20095;-71
2021/07/06 02:19:09;;;;;;;14.53;8.20;;;;;;;15.29;94.22;100504.59;4973866;28;20034;-71
2021/07/06 02:21:34;;;;;;;16.65;8.30;;;;;;;15.32;94.13;100492.59;4990170;28;20125;-71
2021/07/06 02:24:00;;;;;;;12.27;8.27;;;;;;;15.34;94.26;100490.53;4991010;28;20069;-71
2021/07/06 02:26:25;;;;;;;17.73;9.30;;;;;;;15.40;94.28;100495.09;4989944;28;20061;-71
2021/07/06 02:28:51;;;;;;;11.10;8.63;;;;;;;15.37;93.90;100488.28;4990198;28;20046;-71
2021/07/06 02:31:16;;;;;;;15.00;9.20;;;;;;;15.40;93.87;100501.34;4990996;28;20095;-71
2021/07/06 02:33:41;;;;;;;13.97;8.97;;;;;;;15.36;93.74;100501.94;4989994;28;20035;-71
2021/07/06 02:36:07;;;;;;;20.93;8.50;;;;;;;15.34;93.33;100499.44;4990716;28;20038;-71
2021/07/06 02:38:34;;;;;;;12.32;8.00;;;;;;;15.30;93.42;100495.47;4989942;28;20061;-71
2021/07/06 02:41:00;;;;;;;18.83;8.13;;;;;;;15.34;93.73;100491.38;4990951;28;20038;-71
2021/07/06 02:43:25;;;;;;;13.70;8.23;;;;;;;15.38;93.23;100497.16;4990632;28;20038;-71
2021/07/06 02:45:51;;;;;;;11.57;7.90;;;;;;;15.38;92.82;100486.41;4990489;28;20034;-71
2021/07/06 02:48:16;;;;;;;9.38;7.20;;;;;;;15.41;93.19;100489.53;4989621;28;20088;-71
2021/07/06 02:50:43;;;;;;;17.37;7.83;;;;;;;15.42;92.53;100487.66;4990746;28;20402;-71
2021/07/06 02:53:09;;;;;;;9.70;7.78;;;;;;;15.35;92.13;100479.56;4989803;28;20045;-71
2021/07/06 02:55:35;;;;;;;10.10;6.78;;;;;;;15.38;92.46;100472.94;4989769;28;20034;-71
2021/07/06 02:58:00;;;;;;;11.00;7.47;;;;;;;15.41;92.41;100481.47;4989461;28;20037;-71
2021/07/06 03:00:28;;;;;;;12.23;6.47;;;;;;;15.39;91.95;100480.00;4989594;28;20379;-71
2021/07/06 03:02:56;;;;;;;17.38;6.85;;;;;;;15.43;91.72;100485.81;4989545;28;20034;-71
2021/07/06 03:05:24;;;;;;;10.43;6.50;;;;;;;15.44;91.36;100479.41;4990558;28;20039;-72
2021/07/06 03:07:51;;;;;;;12.20;6.43;;;;;;;15.42;90.87;100468.84;4990173;28;20132;-71
2021/07/06 03:10:19;;;;;;;16.00;6.18;;;;;;;15.46;90.76;100475.47;4989234;28;20038;-71
2021/07/06 03:12:45;;;;;;;10.45;6.70;;;;;;;15.45;90.83;100471.13;4989758;28;20113;-71
2021/07/06 03:15:13;;;;;;;14.18;6.43;;;;;;;15.44;90.69;100472.16;4989218;28;20034;-71
2021/07/06 03:17:39;;;;;;;13.13;6.72;;;;;;;15.46;91.05;100467.41;4990133;28;20122;-72
2021/07/06 03:20:06;;;;;;;10.10;5.78;;;;;;;15.42;90.39;100455.38;4989406;28;20117;-72
2021/07/06 03:22:32;;;;;;;12.02;5.80;;;;;;;15.47;90.29;100465.53;4990233;28;20044;-71
2021/07/06 03:24:57;;;;;;;13.82;6.28;;;;;;;15.46;90.79;100459.34;4973003;28;20042;-71
2021/07/06 03:27:23;;;;;;;9.17;5.47;;;;;;;15.53;90.82;100462.06;4989006;28;20074;-71
2021/07/06 03:29:49;;;;;;;9.55;6.18;;;;;;;15.57;90.00;100461.47;4989105;28;20035;-71
2021/07/06 03:32:15;;;;;;;12.93;5.60;;;;;;;15.52;90.48;100461.25;4990168;28;20064;-71
2021/07/06 03:34:41;;;;;;;11.57;4.97;;;;;;;15.53;89.81;100456.69;4989224;28;20035;-71
2021/07/06 03:37:07;;;;;;;10.10;5.10;;;;;;;15.51;90.12;100466.81;4988899;28;20045;-71
2021/07/06 03:39:35;;;;;;;13.85;5.63;;;;;;;15.49;90.12;100460.78;4989189;28;20147;-71
2021/07/06 03:42:00;;;;;;;10.93;5.05;;;;;;;15.47;89.78;100457.47;4972777;28;20379;-71
2021/07/06 03:44:26;;;;;;;11.93;5.15;;;;;;;15.48;90.35;100454.59;4989732;28;20053;-71
2021/07/06 03:46:51;;;;;;;10.87;4.40;;;;;;;15.54;90.21;100453.75;4989598;28;20451;-71
2021/07/06 03:49:16;;;;;;;6.10;4.10;;;;;;;15.46;90.34;100451.28;4972723;28;20137;-71
2021/07/06 03:51:42;;;;;;;9.87;4.60;;;;;;;15.45;90.41;100432.63;4988851;28;20038;-71
2021/07/06 03:54:07;;;;;;;7.30;4.77;;;;;;;15.50;89.68;100433.69;4988959;28;20042;-71
2021/07/06 03:56:32;;;;;;;8.10;4.53;;;;;;;15.52;90.69;100428.94;4989443;28;20049;-71
2021/07/06 03:58:58;;;;;;;4.70;3.93;;;;;;;15.58;89.85;100421.91;4988654;28;20034;-71
2021/07/06 04:01:23;;;;;;;6.07;4.20;;;;;;;15.62;89.57;100424.00;4988842;28;20057;-71
2021/07/06 04:03:48;;;;;;;13.67;4.20;;;;;;;15.60;89.69;100419.84;4989519;28;20038;-71
2021/07/06 04:06:14;;;;;;;8.93;4.00;;;;;;;15.64;90.02;100418.44;4988357;28;20030;-71
2021/07/06 04:08:39;;;;;;;9.13;4.20;;;;;;;15.72;89.93;100414.75;4989570;28;20121;-71
2021/07/06 04:11:04;;;;;;;8.43;3.13;;;;;;;15.65;89.92;100411.19;4989565;28;20046;-71
2021/07/06 04:13:30;;;;;;;5.60;3.30;;;;;;;15.73;90.25;100411.84;4989420;28;20035;-71
2021/07/06 04:15:55;;;;;;;7.23;3.30;;;;;;;15.76;89.91;100392.59;4988239;28;20057;-72
2021/07/06 04:18:20;;;;;;;7.20;3.37;;;;;;;15.80;89.70;100393.84;4989527;28;20098;-71
2021/07/06 04:20:45;;;;;;;12.20;3.37;;;;;;;15.82;88.98;100399.00;4989472;28;20034;-72
2021/07/06 04:23:11;;;;;;;5.53;3.30;;;;;;;15.79;88.79;100407.50;4987971;28;20047;-72
2021/07/06 04:25:37;;;;;;;6.37;4.07;;;;;;;15.77;88.88;100401.50;4988446;28;20072;-72
2021/07/06 04:28:03;;;;;;;10.52;2.90;;;;;;;15.82;89.03;100402.53;4988932;28;20049;-71
2021/07/06 04:30:29;;;;;;;5.95;2.95;;;;;;;15.89;88.91;100402.53;4989184;28;20035;-72
2021/07/06 04:32:54;;;;;;;9.20;3.90;;;;;;;15.94;88.82;100394.66;4988470;28;20053;-75
2021/07/06 04:35:22;;;;;;;7.97;2.90;;;;;;;15.95;87.83;100404.41;4989248;28;20085;-75
2021/07/06 04:37:48;;;;;;;7.93;3.13;;;;;;;15.96;88.07;100397.16;4987939;28;20045;-75
2021/07/06 04:40:14;;;;;;;9.55;3.15;;;;;;;16.03;88.13;100400.69;4989286;28;20377;-74
2021/07/06 04:42:39;;;;;;;7.32;2.75;;;;;;;15.98;88.05;100403.16;4988997;28;20042;-76
2021/07/06 04:45:06;;;;;;;7.78;2.75;;;;;;;16.01;87.40;100402.75;4989252;28;20047;-75
2021/07/06 04:47:31;;;;;;;9.80;3.10;;;;;;;15.96;87.57;100403.38;4987986;28;20042;-75
2021/07/06 04:49:56;;;;;;;4.43;3.13;;;;;;;15.98;88.45;100406.69;4988225;28;20293;-75
2021/07/06 04:52:22;;;;;;;6.60;3.03;;;;;;;16.09;88.14;100402.56;4988184;28;20038;-75
2021/07/06 04:54:47;;;;;;;11.00;3.30;;;;;;;16.19;87.36;100392.19;4988166;28;20052;-75
2021/07/06 04:57:12;;;;;;;8.27;3.33;;;;;;;16.21;86.66;100398.19;4987753;28;20077;-75
2021/07/06 04:59:38;;;;;;;8.63;2.97;;;;;;;16.23;86.70;100396.13;4988059;28;20064;-75
2021/07/06 05:02:04;;;;;;;8.93;2.77;;;;;;;16.22;86.56;100391.78;4987748;28;20046;-75
2021/07/06 05:04:30;;;;;;;8.38;3.03;;;;;;;16.21;86.89;100375.81;4987263;28;20050;-75
2021/07/06 05:06:55;;;;;;;4.53;2.97;;;;;;;16.25;86.82;100363.59;4986231;28;20038;-75
2021/07/06 05:09:21;;;;;;;7.63;2.80;;;;;;;16.39;86.65;100378.72;4986554;28;20070;-75
2021/07/06 05:11:46;;;;;;;13.33;3.03;;;;;;;16.39;86.11;100381.41;4970099;28;20038;-75
2021/07/06 05:14:11;;;;;;;11.73;4.93;;;;;;;16.54;84.76;100380.34;4986465;28;20035;-75
2021/07/06 05:16:37;;;;;;;10.23;2.47;;;;;;;16.63;84.92;100371.81;4986763;28;20095;-75
2021/07/06 05:19:02;;;;;;;8.83;2.87;;;;;;;16.77;84.68;100353.75;4988780;28;20034;-75
2021/07/06 05:21:28;;;;;;;3.60;2.70;;;;;;;16.83;84.61;100333.22;4988509;28;20503;-75
2021/07/06 05:23:53;;;;;;;7.53;2.87;;;;;;;16.88;83.69;100347.72;4971632;28;20034;-75
2021/07/06 05:26:18;;;;;;;7.67;2.70;;;;;;;17.24;82.38;100367.88;4988275;28;20117;-75
2021/07/06 05:28:44;;;;;;;8.10;2.40;;;;;;;17.12;82.73;100379.56;4987769;28;20122;-75
2021/07/06 05:31:09;;;;;;;3.17;2.60;;;;;;;16.95;82.60;100380.06;4988588;28;20371;-75
2021/07/06 05:33:34;;;;;;;7.10;2.47;;;;;;;16.84;82.45;100373.44;4988434;28;20030;-74
2021/07/06 05:36:00;;;;;;;10.90;2.97;;;;;;;16.91;83.31;100378.00;4974023;28;20065;-75
2021/07/06 05:38:25;;;;;;;4.33;2.13;;;;;;;17.02;82.49;100385.41;4992045;28;20043;-75
2021/07/06 05:40:55;;;;;;;13.50;2.53;;;;;;;17.14;82.02;100378.31;4990894;28;20148;-75
2021/07/06 05:43:21;;;;;;;5.65;2.47;;;;;;;17.24;82.46;100361.66;4974520;28;20409;-75
2021/07/06 05:45:50;;;;;;;3.35;2.40;;;;;;;17.76;79.56;100362.34;4991658;28;20045;-74
2021/07/06 05:48:16;;;;;;;3.80;1.98;;;;;;;17.70;80.01;100369.47;4990597;28;20721;-75
2021/07/06 05:50:42;;;;;;;5.70;2.15;;;;;;;17.75;80.06;100376.91;4974613;28;20498;-76
2021/07/06 05:53:08;;;;;;;4.83;1.93;;;;;;;18.41;78.12;100367.44;4990340;28;20038;-75
2021/07/06 05:55:33;;;;;;;;;;;;;;;19.04;74.68;100376.34;4989555;28;20038;-76
2021/07/06 05:57:59;;;;;;;;;;;;;;;20.64;69.54;100372.81;4989364;28;19921;-76
2021/07/06 06:00:24;;;;;;;1.60;1.50;;;;;;;20.61;68.92;100364.34;4972773;28;19917;-76
2021/07/06 06:02:49;;;;;;;2.90;1.47;;;;;;;20.68;67.38;100370.47;4989899;28;20042;-76
2021/07/06 06:05:15;;;;;;;3.47;1.67;;;;;;;19.76;70.15;100369.13;4989900;28;20027;-76
2021/07/06 06:07:41;;;;;;;10.63;2.60;;;;;;;18.98;73.83;100376.19;4988860;28;20049;-75
2021/07/06 06:10:08;;;;;;;5.43;1.95;;;;;;;20.19;70.40;100378.00;4990813;28;20042;-76
2021/07/06 06:12:35;;;;;;;5.35;1.77;;;;;;;20.50;68.46;100357.00;4990270;28;20038;-76
2021/07/06 06:15:01;;;;;;;4.60;1.70;;;;;;;19.59;72.64;100376.22;4991292;28;20030;-76
2021/07/06 06:17:27;;;;;;;2.40;1.95;;;;;;;19.76;71.71;100381.81;4990912;28;20030;-76
2021/07/06 06:19:52;;;;;;;7.33;2.17;;;;;;;18.91;74.22;100388.16;4991294;28;20363;-75
2021/07/06 06:22:17;;;;;;;3.60;2.37;;;;;;;18.62;76.74;100389.69;4990286;28;20415;-75
2021/07/06 06:24:43;;;;;;;3.63;2.63;;;;;;;18.70;76.67;100392.09;4974002;28;20403;-76
2021/07/06 06:27:08;;;;;;;3.47;1.90;;;;;;;18.54;76.63;100386.25;4990821;28;20088;-75
2021/07/06 06:29:34;;;;;;;3.63;1.73;;;;;;;18.51;77.36;100394.78;4989579;28;20160;-75
2021/07/06 06:31:59;;;;;;;3.85;2.17;;;;;;;18.41;77.73;100389.06;4988586;28;20038;-75
2021/07/06 06:34:25;;;;;;;9.57;2.50;;;;;;;18.31;78.81;100383.34;4988370;28;20047;-74
2021/07/06 06:36:50;;;;;;;3.83;2.57;;;;;;;18.49;78.88;100366.31;4989204;28;20113;-75
2021/07/06 06:39:15;;;;;;;2.87;1.87;;;;;;;18.74;77.65;100360.84;4972037;28;20049;-75
2021/07/06 06:41:41;;;;;;;5.03;2.00;;;;;;;19.80;73.61;100340.50;4988326;28;20100;-75
2021/07/06 06:44:06;;;;;;;4.90;1.97;;;;;;;20.98;69.52;100345.88;4990287;28;20418;-75
2021/07/06 06:46:31;;;;;;;4.10;1.73;;;;;;;21.54;66.62;100332.53;4989426;28;20368;-75
2021/07/06 06:49:00;;;;;;;8.87;2.30;;;;;;;20.99;68.52;100335.81;4989694;28;20041;-75
2021/07/06 06:51:26;;;;;;;3.35;1.95;;;;;;;21.32;67.98;100332.38;4978903;28;20130;-75
2021/07/06 06:53:52;;;;;;;4.72;2.00;;;;;;;21.15;67.61;100332.34;4970646;28;20356;-75
2021/07/06 06:56:17;;;;;;;2.37;1.40;;;;;;;22.06;64.30;100334.19;4970035;28;20045;-75
2021/07/06 06:58:44;;;;;;;5.20;1.80;;;;;;;21.61;65.65;100335.06;4971154;28;20502;-74
2021/07/06 07:01:10;;;;;;;2.88;2.00;;;;;;;21.97;64.33;100343.84;4971139;28;20034;-73
2021/07/06 07:03:35;;;;;;;2.35;1.75;;;;;;;21.81;64.38;100340.03;4954156;28;20045;-74
2021/07/06 07:06:00;;;;;;;2.57;1.80;;;;;;;21.26;66.03;100350.47;4970048;28;20046;-74
2021/07/06 07:08:26;;;;;;;3.97;1.90;;;;;;;21.96;64.74;100340.31;4970075;28;20516;-73
2021/07/06 07:10:52;;;;;;;2.80;1.73;;;;;;;21.57;65.79;100344.81;4954185;28;20118;-73
2021/07/06 07:13:17;;;;;;;1.92;1.63;;;;;;;21.55;66.42;100349.66;4970068;28;20058;-74
2021/07/06 07:15:43;;;;;;;2.65;1.70;;;;;;;22.01;64.93;100350.41;4970083;28;20396;-74
2021/07/06 07:18:08;;;;;;;3.60;1.53;;;;;;;21.66;65.15;100349.59;4970680;28;20039;-73
2021/07/06 07:20:34;;;;;;;4.10;1.50;;;;;;;21.04;67.93;100352.19;4970029;28;20037;-73
2021/07/06 07:23:00;;;;;;;3.15;1.83;;;;;;;20.95;68.74;100351.75;4953637;28;20472;-73
2021/07/06 07:25:26;;;;;;;3.42;1.90;;;;;;;20.14;70.53;100346.19;4970872;28;20049;-74
2021/07/06 07:27:52;;;;;;;2.17;1.90;;;;;;;20.52;69.40;100331.31;4969556;28;20375;-73
2021/07/06 07:30:19;;;;;;;1.95;1.63;;;;;;;20.47;69.89;100316.81;4953655;28;20053;-73
2021/07/06 07:32:45;;;;;;;27.77;2.00;;;;;;;20.50;71.85;100300.88;4953857;28;20101;-73
2021/07/06 07:35:12;;;;;;;3.00;1.73;;;;;;;20.60;70.45;100301.16;4970703;28;20122;-73
2021/07/06 07:37:37;;;;;;;4.45;1.90;;;;;;;20.96;70.62;100301.84;4968805;28;20031;-73
2021/07/06 07:40:04;;;;;;;2.67;1.65;;;;;;;20.47;70.28;100319.53;4969076;28;20426;-73
2021/07/06 07:42:30;;;;;;;2.88;1.73;;;;;;;20.64;70.57;100315.03;4968956;28;20039;-73
2021/07/06 07:44:55;;;;;;;2.25;1.50;;;;;;;20.64;70.99;100321.28;4967858;28;20504;-73
2021/07/06 07:47:21;;;;;;;3.27;1.57;;;;;;;20.62;70.89;100330.72;4951667;28;20105;-73
2021/07/06 07:49:46;;;;;;;3.03;2.13;;;;;;;20.76;70.87;100323.16;4968937;28;20105;-73
2021/07/06 07:52:11;;;;;;;2.20;2.00;;;;;;;20.42;72.05;100321.06;4968623;28;20034;-73
2021/07/06 07:54:37;;;;;;;2.30;2.10;;;;;;;20.83;70.32;100329.25;4970200;28;20113;-73
2021/07/06 07:57:06;;;;;;;2.33;2.13;;;;;;;20.74;70.21;100322.56;4969353;28;20066;-73
2021/07/06 07:59:32;;;;;;;5.32;2.28;;;;;;;21.51;67.73;100319.44;4953293;28;20290;-73
2021/07/06 08:01:57;;;;;;;2.67;1.77;;;;;;;21.78;68.01;100316.91;4970279;28;20042;-74
2021/07/06 08:04:22;;;;;;;4.70;1.60;;;;;;;22.23;66.21;100315.16;4970268;28;20043;-73
2021/07/06 08:06:48;;;;;;;2.10;1.50;;;;;;;21.88;66.62;100325.22;4969858;28;20035;-73
2021/07/06 08:09:13;;;;;;;3.43;1.50;;;;;;;21.70;66.64;100323.59;4969251;28;20134;-73
2021/07/06 08:11:38;;;;;;;4.13;1.83;;;;;;;22.65;64.28;100328.25;4953256;28;20030;-73
2021/07/06 08:14:04;;;;;;;2.23;1.70;;;;;;;22.30;65.74;100332.94;4969317;28;20504;-73
2021/07/06 08:16:29;;;;;;;1.87;1.40;;;;;;;21.88;65.99;100327.94;4968864;28;20092;-74
2021/07/06 08:18:55;;;;;;;2.37;1.53;;;;;;;21.67;66.25;100331.38;4969224;28;20049;-73
2021/07/06 08:21:20;;;;;;;2.20;1.70;;;;;;;21.69;65.78;100330.06;4969956;28;20038;-73
2021/07/06 08:23:46;;;;;;;2.03;1.58;;;;;;;21.58;66.53;100335.56;4969024;28;20464;-73
2021/07/06 08:26:11;;;;;;;1.70;1.57;;;;;;;21.72;66.49;100334.19;4968828;28;20517;-74
2021/07/06 08:28:37;;;;;;;2.80;1.47;;;;;;;21.74;65.35;100345.63;4969011;28;20046;-73
2021/07/06 08:31:02;;;;;;;4.80;1.40;;;;;;;22.02;64.89;100330.31;4969794;28;20492;-74
2021/07/06 08:33:27;;;;;;;2.27;1.87;;;;;;;22.88;63.77;100329.91;4969021;28;20338;-73
2021/07/06 08:35:53;;;;;;;1.83;1.43;;;;;;;23.17;61.99;100327.78;4968588;28;20035;-74
2021/07/06 08:38:18;;;;;;;2.40;1.10;;;;;;;22.91;64.37;100321.22;4952722;28;20095;-74
2021/07/06 08:40:48;;;;;;;3.33;1.60;;;;;;;23.77;60.70;100315.03;4969884;28;20035;-74
2021/07/06 08:43:15;;;;;;;3.80;1.55;;;;;;;24.28;59.54;100312.66;4968648;28;20054;-74
2021/07/06 08:45:40;;;;;;;;;;;;;;;24.72;58.41;100301.41;4969136;28;20042;-74
2021/07/06 08:48:07;;;;;;;7.40;1.30;;;;;;;24.61;56.98;100307.94;4969484;28;19918;-75
2021/07/06 08:50:33;;;;;;;1.70;1.20;;;;;;;24.50;56.69;100304.31;4968602;28;20031;-74
2021/07/06 08:52:58;;;;;;;1.37;1.20;;;;;;;23.82;58.58;100303.34;4969569;28;20470;-74
2021/07/06 08:55:24;;;;;;;1.33;1.10;;;;;;;23.79;59.02;100316.41;4969601;28;20039;-74
2021/07/06 08:57:52;;;;;;;2.60;1.40;;;;;;;24.25;56.39;100313.16;4968319;28;20050;-74
2021/07/06 09:00:18;;;;;;;1.10;1.00;;;;;;;23.95;55.98;100302.88;4969440;28;20149;-74
2021/07/06 09:02:59;;;;;;;8.23;3.08;;;;;;;24.28;56.95;100309.06;4968542;28;20042;-74
2021/07/06 09:05:24;;;;;;;2.00;1.27;;;;;;;24.06;56.94;100303.78;4968544;28;20047;-74
2021/07/06 09:07:50;;;;;;;3.50;1.50;;;;;;;24.79;54.44;100301.16;4968258;28;20050;-74
2021/07/06 09:10:26;;;;;;;2.92;1.95;;;;;;;25.05;53.56;100293.84;4970439;28;20031;-74
2021/07/06 09:12:52;;;;;;;10.95;1.73;;;;;;;24.91;53.82;100292.72;4972037;28;20038;-74
2021/07/06 09:15:24;;;;;;;2.67;1.17;;;;;;;25.08;53.59;100287.88;4971789;28;20367;-74
2021/07/06 09:18:15;;;;;;;2.17;0.90;;;;;;;23.95;56.09;100298.28;4955427;28;20287;-74
2021/07/06 09:20:42;;;;;;;2.55;1.27;;;;;;;23.70;56.53;100306.22;4971609;28;20110;-74
2021/07/06 09:23:31;;;;;;;2.20;1.13;;;;;;;24.49;54.42;100312.78;4971958;28;20050;-74
2021/07/06 09:26:14;;;;;;;3.92;1.67;;;;;;;25.19;53.67;100321.50;4970522;28;20042;-74
2021/07/06 09:28:48;;;;;;;3.40;1.17;;;;;;;24.92;52.78;100314.31;4972030;28;20038;-73
2021/07/06 09:31:20;;;;;;;3.60;1.27;;;;;;;25.81;51.82;100316.91;4972114;28;20199;-74
2021/07/06 09:33:50;;;;;;;3.60;1.52;;;;;;;26.07;51.96;100298.59;4971163;28;20039;-74
2021/07/06 09:36:31;;;;;;;4.45;1.13;;;;;;;25.46;52.81;100300.25;4970527;28;20643;-74
2021/07/06 09:39:09;;;;;;;1.60;1.38;;;;;;;24.44;54.70;100306.19;4972335;28;20045;-74
2021/07/06 09:41:35;;;;;;;1.85;1.30;;;;;;;24.98;54.36;100304.22;4971242;28;20046;-74
2021/07/06 09:44:37;;;;;;;5.10;1.27;;;;;;;25.72;51.75;100299.44;4971239;28;20053;-74
2021/07/06 09:47:10;;;;;;;3.75;1.00;;;;;;;25.38;51.75;100289.88;5023761;28;20204;-74
2021/07/06 09:49:41;;;;;;;3.15;1.42;;;;;;;25.78;51.42;100290.09;4972109;28;20041;-74
2021/07/06 09:52:14;;;;;;;2.58;1.15;;;;;;;25.12;52.86;100279.94;4971191;28;20066;-75
2021/07/06 09:54:44;;;;;;;3.47;0.93;;;;;;;25.45;52.73;100284.09;4972224;28;20039;-74
2021/07/06 09:59:55;;;;;;;2.88;1.23;;;;;;;24.97;51.15;100297.13;4971802;28;20077;-74
2021/07/06 10:02:21;;;;;;;4.70;1.00;;;;;;;25.49;52.23;100288.75;4972022;28;20042;-73
2021/07/06 10:04:48;;;;;;;;;;;;;;;25.79;52.72;100302.69;4955377;28;20052;-74
2021/07/06 10:07:14;;;;;;;2.00;0.98;;;;;;;25.01;54.22;100299.06;4971730;28;19914;-74
2021/07/06 10:09:40;;;;;;;1.38;0.90;;;;;;;25.96;52.66;100303.25;4971921;28;20031;-74
2021/07/06 10:12:08;;;;;;;4.50;1.00;;;;;;;25.40;51.33;100300.50;4970981;28;20074;-74
2021/07/06 10:14:34;;;;;;;0.85;0.82;;;;;;;24.81;54.10;100299.81;4971848;28;20435;-74
2021/07/06 10:16:59;;;;;;;2.17;1.05;;;;;;;24.75;52.90;100289.97;4970684;28;20118;-74
2021/07/06 10:19:25;;;;;;;0.93;0.63;;;;;;;24.77;52.92;100285.06;4971066;28;20078;-74
2021/07/06 10:21:50;;;;;;;1.75;0.88;;;;;;;24.88;54.06;100298.75;4970379;28;20081;-74
2021/07/06 10:24:16;;;;;;;1.48;0.82;;;;;;;24.57;52.76;100295.91;4971518;28;20042;-73
2021/07/06 10:26:43;;;;;;;2.22;1.05;;;;;;;24.53;53.91;100303.78;4970698;28;20049;-74
2021/07/06 10:29:09;;;;;;;2.08;1.00;;;;;;;24.63;54.57;100306.56;4954746;28;20039;-74
2021/07/06 10:31:41;;;;;;;4.13;1.25;;;;;;;24.84;53.67;100312.09;4954688;28;20035;-74
2021/07/06 10:34:24;;;;;;;1.40;0.93;;;;;;;24.56;54.70;100308.72;4971668;28;20118;-73
2021/07/06 10:36:51;;;;;;;1.77;1.20;;;;;;;24.61;54.67;100299.75;4970975;28;20041;-74
2021/07/06 10:39:18;;;;;;;5.25;1.30;;;;;;;24.56;54.41;100297.81;4970590;28;20047;-74
2021/07/06 10:41:52;;;;;;;6.72;1.40;;;;;;;24.80;54.82;100295.44;4971242;28;20053;-74
2021/07/06 10:44:18;;;;;;;2.28;1.23;;;;;;;25.06;54.61;100281.84;4971252;28;20512;-74
2021/07/06 10:46:45;;;;;;;2.88;1.20;;;;;;;25.16;54.26;100270.13;4970222;28;20138;-74
2021/07/06 10:49:27;;;;;;;3.03;1.23;;;;;;;24.90;54.17;100282.91;4970427;28;20064;-73
2021/07/06 10:51:54;;;;;;;2.80;1.25;;;;;;;25.25;54.93;100283.00;4971359;28;20065;-74
2021/07/06 10:54:20;;;;;;;4.45;1.08;;;;;;;24.68;55.00;100278.50;4954353;28;20026;-74
2021/07/06 10:56:47;;;;;;;2.43;1.50;;;;;;;24.69;55.04;100277.38;4970184;28;20632;-73
2021/07/06 10:59:31;;;;;;;6.75;1.30;;;;;;;24.38;56.25;100276.41;4970280;28;20051;-74
2021/07/06 11:02:03;;;;;;;1.55;1.15;;;;;;;24.38;57.43;100269.06;4970118;28;20711;-74
2021/07/06 11:04:47;;;;;;;1.85;1.33;;;;;;;24.43;57.33;100288.16;4954060;28;20092;-74
2021/07/06 11:07:16;;;;;;;4.00;1.10;;;;;;;24.38;56.85;100304.50;4969803;28;20038;-73
2021/07/06 11:09:42;;;;;;;5.38;1.10;;;;;;;24.50;56.47;100284.41;4971061;28;20035;-74
2021/07/06 11:12:21;;;;;;;2.37;1.17;;;;;;;24.50;56.04;100281.69;4970893;28;20039;-74
2021/07/06 11:14:51;;;;;;;1.63;1.02;;;;;;;24.42;56.32;100286.53;4970998;28;20039;-73
2021/07/06 11:17:35;;;;;;;2.60;1.77;;;;;;;24.35;56.27;100282.38;4970612;28;20080;-73
2021/07/06 11:20:04;;;;;;;3.95;1.30;;;;;;;24.21;57.02;100279.34;4953887;28;20039;-73
2021/07/06 11:22:49;;;;;;;2.78;1.52;;;;;;;24.11;58.40;100273.81;4970682;28;20114;-73
2021/07/06 11:25:36;;;;;;;2.05;1.15;;;;;;;24.06;58.40;100266.41;4970848;28;20043;-73